createdAt,value
2023-02-22T00:02:11.508Z,15.02
2023-02-22T00:04:42.490Z,12.32
2023-02-22T00:07:09.806Z,7.63
2023-02-22T00:09:37.405Z,8.95
2023-02-22T00:12:04.779Z,6.40
2023-02-22T00:14:32.391Z,7.70
2023-02-22T00:17:00.085Z,7.93
2023-02-22T00:19:31.233Z,7.38
2023-02-22T00:21:58.709Z,6.82
2023-02-22T00:24:26.322Z,9.18
2023-02-22T00:26:58.192Z,6.28
2023-02-22T00:29:26.356Z,7.47
2023-02-22T00:31:54.368Z,6.28
2023-02-22T00:34:24.393Z,6.95
2023-02-22T00:36:51.804Z,6.45
2023-02-22T00:39:19.495Z,8.65
2023-02-22T00:41:46.861Z,8.73
2023-02-22T00:44:14.791Z,9.85
2023-02-22T00:46:42.183Z,8.25
2023-02-22T00:49:09.954Z,6.78
2023-02-22T00:51:37.310Z,8.30
2023-02-22T00:54:05.554Z,8.00
2023-02-22T00:56:34.713Z,13.48
2023-02-22T00:59:02.543Z,15.77
2023-02-22T01:01:30.510Z,15.05
2023-02-22T01:03:58.034Z,17.77
2023-02-22T01:06:25.256Z,17.38
2023-02-22T01:08:52.800Z,17.23
2023-02-22T01:11:20.006Z,17.25
2023-02-22T01:13:48.847Z,11.80
2023-02-22T01:16:17.363Z,11.98
2023-02-22T01:18:45.009Z,11.10
2023-02-22T01:21:12.283Z,10.60
2023-02-22T01:23:45.429Z,10.63
2023-02-22T01:26:13.101Z,16.95
2023-02-22T01:28:40.595Z,18.73
2023-02-22T01:31:07.877Z,17.58
2023-02-22T01:33:35.406Z,13.63
2023-02-22T01:36:03.919Z,11.43
2023-02-22T01:38:31.415Z,11.60
2023-02-22T01:40:58.684Z,10.07
2023-02-22T01:43:27.765Z,9.90
2023-02-22T01:46:21.397Z,9.48
2023-02-22T01:49:06.172Z,12.65
2023-02-22T01:51:44.285Z,18.13
2023-02-22T01:54:35.336Z,26.23
2023-02-22T01:57:22.740Z,13.77
2023-02-22T01:59:56.952Z,13.50
2023-02-22T02:02:25.393Z,13.80
2023-02-22T02:04:57.846Z,11.13
2023-02-22T02:07:26.926Z,14.02
2023-02-22T02:10:04.625Z,11.45
2023-02-22T02:12:35.964Z,14.25
2023-02-22T02:15:21.708Z,14.52
2023-02-22T02:17:50.911Z,12.10
2023-02-22T02:20:27.622Z,7.45
2023-02-22T02:23:06.436Z,9.05
2023-02-22T02:26:04.037Z,11.27
2023-02-22T02:29:02.252Z,9.90
2023-02-22T02:31:48.586Z,7.47
2023-02-22T02:34:22.164Z,9.52
2023-02-22T02:37:10.553Z,9.45
2023-02-22T02:39:56.301Z,7.75
2023-02-22T02:42:33.389Z,7.63
2023-02-22T02:45:08.980Z,8.65
2023-02-22T02:47:42.588Z,8.98
2023-02-22T02:50:15.493Z,10.90
2023-02-22T02:52:45.518Z,8.85
2023-02-22T02:55:13.630Z,6.25
2023-02-22T02:57:42.342Z,10.50
2023-02-22T03:00:22.808Z,11.48
2023-02-22T03:03:16.860Z,11.73
2023-02-22T03:06:11.334Z,7.95
2023-02-22T03:08:41.853Z,8.98
2023-02-22T03:11:19.580Z,8.60
2023-02-22T03:13:58.719Z,12.00
2023-02-22T03:16:52.547Z,8.85
2023-02-22T03:19:25.908Z,10.20
2023-02-22T03:22:02.882Z,9.27
2023-02-22T03:24:42.647Z,7.40
2023-02-22T03:27:26.076Z,11.45
2023-02-22T03:30:01.013Z,11.10
2023-02-22T03:32:38.634Z,10.93
2023-02-22T03:35:18.423Z,11.25
2023-02-22T03:37:50.472Z,8.25
2023-02-22T03:40:26.745Z,7.78
2023-02-22T03:43:02.208Z,8.75
2023-02-22T03:45:31.977Z,9.75
2023-02-22T03:48:10.436Z,9.38
2023-02-22T03:50:39.126Z,13.32
2023-02-22T03:53:08.197Z,12.32
2023-02-22T03:55:37.964Z,15.38
2023-02-22T03:58:12.123Z,17.73
2023-02-22T04:00:44.683Z,17.38
2023-02-22T04:03:12.310Z,17.35
2023-02-22T04:05:40.216Z,17.30
2023-02-22T04:08:07.712Z,15.52
2023-02-22T04:10:37.795Z,15.43
2023-02-22T04:13:07.341Z,14.68
2023-02-22T04:15:37.327Z,16.80
2023-02-22T04:18:06.771Z,13.77
2023-02-22T04:20:35.120Z,15.15
2023-02-22T04:23:10.793Z,11.55
2023-02-22T04:25:40.414Z,14.32
2023-02-22T04:31:07.030Z,15.02
2023-02-22T04:33:34.202Z,15.40
2023-02-22T04:36:02.008Z,16.52
2023-02-22T04:38:32.487Z,15.77
2023-02-22T04:41:00.721Z,11.85
2023-02-22T04:43:28.153Z,14.38
2023-02-22T04:46:04.788Z,13.50
2023-02-22T04:48:32.156Z,12.95
2023-02-22T04:50:59.671Z,9.57
2023-02-22T04:53:31.785Z,11.00
2023-02-22T04:55:59.321Z,10.55
2023-02-22T04:58:27.747Z,8.32
2023-02-22T05:00:55.342Z,8.90
2023-02-22T05:03:22.474Z,9.80
2023-02-22T05:05:52.352Z,8.43
2023-02-22T05:08:19.604Z,13.98
2023-02-22T05:10:47.085Z,18.42
2023-02-22T05:13:14.296Z,14.80
2023-02-22T05:15:41.918Z,12.20
2023-02-22T05:18:09.732Z,15.77
2023-02-22T05:20:37.334Z,22.65
2023-02-22T05:23:05.780Z,27.35
2023-02-22T05:25:33.889Z,27.98
2023-02-22T05:28:04.028Z,23.00
2023-02-22T05:30:35.015Z,23.60
2023-02-22T05:33:02.909Z,25.23
2023-02-22T05:35:30.838Z,34.75
2023-02-22T05:37:59.946Z,48.08
2023-02-22T05:40:28.798Z,39.90
2023-02-22T05:42:57.125Z,25.65
2023-02-22T05:45:27.637Z,19.58
2023-02-22T05:47:55.288Z,18.02
2023-02-22T05:50:23.240Z,23.05
2023-02-22T05:52:50.957Z,26.85
2023-02-22T05:55:20.626Z,15.68
2023-02-22T05:57:48.104Z,15.25
2023-02-22T06:00:23.435Z,20.00
2023-02-22T06:03:10.892Z,19.33
2023-02-22T06:05:40.306Z,16.50
2023-02-22T06:08:08.429Z,16.95
2023-02-22T06:10:36.276Z,16.42
2023-02-22T06:13:05.078Z,17.48
2023-02-22T06:15:32.687Z,16.00
2023-02-22T06:18:00.473Z,19.55
2023-02-22T06:20:29.825Z,17.38
2023-02-22T06:22:58.813Z,15.75
2023-02-22T06:25:31.727Z,24.77
2023-02-22T06:28:02.118Z,24.08
2023-02-22T06:30:30.819Z,21.48
2023-02-22T06:32:58.234Z,17.80
2023-02-22T06:35:25.866Z,21.65
2023-02-22T06:37:53.186Z,18.10
2023-02-22T06:40:21.040Z,16.52
2023-02-22T06:42:49.417Z,13.70
2023-02-22T06:45:18.376Z,13.75
2023-02-22T06:47:46.467Z,13.05
2023-02-22T06:50:20.792Z,9.27
2023-02-22T06:52:48.253Z,10.50
2023-02-22T06:55:20.780Z,13.55
2023-02-22T06:57:48.073Z,12.70
2023-02-22T07:00:19.007Z,10.73
2023-02-22T07:02:48.546Z,9.20
2023-02-22T07:05:18.170Z,9.43
2023-02-22T07:07:46.272Z,7.35
2023-02-22T07:10:23.927Z,13.80
2023-02-22T07:12:52.697Z,9.73
2023-02-22T07:15:23.850Z,10.95
2023-02-22T07:17:51.893Z,11.25
2023-02-22T07:20:21.006Z,9.75
2023-02-22T07:22:49.239Z,12.23
2023-02-22T07:25:16.997Z,13.20
2023-02-22T07:27:44.363Z,10.77
2023-02-22T07:30:26.316Z,12.48
2023-02-22T07:32:55.637Z,11.55
2023-02-22T07:35:28.096Z,13.23
2023-02-22T07:37:56.171Z,11.80
2023-02-22T07:40:25.476Z,12.25
2023-02-22T07:42:57.440Z,12.70
2023-02-22T07:45:27.806Z,12.77
2023-02-22T07:47:55.948Z,14.05
2023-02-22T07:50:25.712Z,12.73
2023-02-22T07:52:56.019Z,12.57
2023-02-22T07:55:27.039Z,13.27
2023-02-22T07:57:57.853Z,11.27
2023-02-22T08:00:32.873Z,11.68
2023-02-22T08:03:02.185Z,10.57
2023-02-22T08:05:32.199Z,11.75
2023-02-22T08:07:59.700Z,11.20
2023-02-22T08:10:27.821Z,10.43
2023-02-22T08:12:56.126Z,10.40
2023-02-22T08:15:28.779Z,38.92
2023-02-22T08:17:59.730Z,11.77
2023-02-22T08:20:28.954Z,66.72
2023-02-22T08:22:57.600Z,41.35
2023-02-22T08:25:27.760Z,32.78
2023-02-22T08:28:01.602Z,7.00
2023-02-22T08:30:32.313Z,9.38
2023-02-22T08:32:59.904Z,5.60
2023-02-22T08:35:27.796Z,5.97
2023-02-22T08:37:59.078Z,6.00
2023-02-22T08:40:28.998Z,5.00
2023-02-22T08:42:56.272Z,2.90
2023-02-22T08:45:24.094Z,3.30
2023-02-22T08:47:52.033Z,4.30
2023-02-22T08:50:23.772Z,3.03
2023-02-22T08:52:52.474Z,4.00
2023-02-22T08:55:24.987Z,3.97
2023-02-22T08:57:52.216Z,4.47
2023-02-22T09:00:26.315Z,3.72
2023-02-22T09:02:53.612Z,3.53
2023-02-22T09:05:21.583Z,4.75
2023-02-22T09:07:48.961Z,3.10
2023-02-22T09:10:26.553Z,3.10
2023-02-22T09:12:58.379Z,3.75
2023-02-22T09:15:26.268Z,3.55
2023-02-22T09:17:54.051Z,3.25
2023-02-22T09:20:23.960Z,3.83
2023-02-22T09:22:51.591Z,3.05
2023-02-22T09:25:22.415Z,6.25
2023-02-22T09:27:51.519Z,3.47
2023-02-22T09:30:32.601Z,3.85
2023-02-22T09:33:12.236Z,4.30
2023-02-22T09:35:46.599Z,4.70
2023-02-22T09:38:19.990Z,4.13
2023-02-22T09:40:50.951Z,4.05
2023-02-22T09:43:24.947Z,4.60
2023-02-22T09:46:21.419Z,4.28
2023-02-22T09:48:54.419Z,4.15
2023-02-22T09:51:23.305Z,4.13
2023-02-22T09:53:54.055Z,3.78
2023-02-22T09:56:22.694Z,4.15
2023-02-22T09:58:55.686Z,3.60
2023-02-22T10:01:46.779Z,4.03
2023-02-22T10:04:35.545Z,4.85
2023-02-22T10:07:28.442Z,4.65
2023-02-22T10:09:57.969Z,5.47
2023-02-22T10:12:52.432Z,5.85
2023-02-22T10:15:34.478Z,6.50
2023-02-22T10:18:36.091Z,4.32
2023-02-22T10:21:19.563Z,4.53
2023-02-22T10:24:05.308Z,4.18
2023-02-22T10:26:36.884Z,4.97
2023-02-22T10:29:15.152Z,5.03
2023-02-22T10:37:38.615Z,4.57
2023-02-22T10:40:33.036Z,5.78
2023-02-22T10:43:06.119Z,5.60
2023-02-22T10:45:36.098Z,5.28
2023-02-22T10:48:13.351Z,6.07
2023-02-22T10:50:43.524Z,5.43
2023-02-22T10:53:12.038Z,6.07
2023-02-22T10:56:25.650Z,6.40
2023-02-22T10:58:59.857Z,6.20
2023-02-22T11:01:33.243Z,5.95
2023-02-22T11:04:17.868Z,4.10
2023-02-22T11:06:48.540Z,3.92
2023-02-22T11:09:23.707Z,3.63
2023-02-22T11:12:11.766Z,3.17
2023-02-22T11:14:39.403Z,3.20
2023-02-22T11:17:08.617Z,3.47
2023-02-22T11:19:38.566Z,3.53
2023-02-22T11:22:06.272Z,8.50
2023-02-22T11:24:47.445Z,4.43
2023-02-22T11:27:38.355Z,3.95
2023-02-22T11:30:21.955Z,4.25
2023-02-22T11:32:56.732Z,4.18
2023-02-22T11:35:35.665Z,4.03
2023-02-22T11:38:18.094Z,4.45
2023-02-22T11:40:46.317Z,5.10
2023-02-22T11:43:19.017Z,3.90
2023-02-22T11:46:20.276Z,4.45
2023-02-22T11:49:17.735Z,4.50
2023-02-22T11:52:01.470Z,3.67
2023-02-22T11:54:56.431Z,5.10
2023-02-22T11:57:54.134Z,3.92
2023-02-22T12:00:49.886Z,3.65
2023-02-22T12:03:35.430Z,3.75
2023-02-22T12:06:08.927Z,3.53
2023-02-22T12:08:38.853Z,4.40
2023-02-22T12:11:28.980Z,2.88
2023-02-22T12:14:11.676Z,3.60
2023-02-22T12:17:03.496Z,3.08
2023-02-22T12:19:43.592Z,3.88
2023-02-22T12:22:26.892Z,3.78
2023-02-22T12:25:09.767Z,3.80
2023-02-22T12:27:52.488Z,3.60
2023-02-22T12:30:29.091Z,4.13
2023-02-22T12:33:06.351Z,4.68
2023-02-22T12:35:37.770Z,3.42
2023-02-22T12:38:12.440Z,3.75
2023-02-22T12:41:04.182Z,3.72
2023-02-22T12:43:39.201Z,3.60
2023-02-22T12:46:20.427Z,3.25
2023-02-22T12:48:54.356Z,3.72
2023-02-22T12:51:42.957Z,4.57
2023-02-22T12:54:45.998Z,4.10
2023-02-22T12:57:22.526Z,3.72
2023-02-22T12:59:59.718Z,4.00
2023-02-22T13:02:35.228Z,4.45
2023-02-22T13:05:04.365Z,3.50
2023-02-22T13:07:47.607Z,4.20
2023-02-22T13:10:17.023Z,6.35
2023-02-22T13:12:57.552Z,5.70
2023-02-22T13:15:44.771Z,3.97
2023-02-22T13:18:39.643Z,4.70
2023-02-22T13:21:23.543Z,4.43
2023-02-22T13:24:04.951Z,6.93
2023-02-22T13:26:44.530Z,4.53
2023-02-22T13:29:20.762Z,3.53
2023-02-22T13:32:13.905Z,4.32
2023-02-22T13:34:57.072Z,3.78
2023-02-22T13:38:00.275Z,3.58
2023-02-22T13:40:55.096Z,3.33
2023-02-22T13:43:51.605Z,4.95
2023-02-22T13:46:19.463Z,3.92
2023-02-22T13:49:06.103Z,4.53
2023-02-22T13:51:48.668Z,3.88
2023-02-22T13:54:23.201Z,3.95
2023-02-22T13:56:52.957Z,4.15
2023-02-22T13:59:37.523Z,5.88
2023-02-22T14:02:08.180Z,4.63
2023-02-22T14:04:41.918Z,4.60
2023-02-22T14:07:34.263Z,4.90
2023-02-22T14:10:02.093Z,5.28
2023-02-22T14:12:29.512Z,5.30
2023-02-22T14:15:18.703Z,5.97
2023-02-22T14:18:01.315Z,5.45
2023-02-22T14:20:40.388Z,6.00
2023-02-22T14:23:44.626Z,4.95
2023-02-22T14:26:12.509Z,6.65
2023-02-22T14:28:42.731Z,6.00
2023-02-22T14:31:33.333Z,7.50
2023-02-22T14:34:12.672Z,6.45
2023-02-22T14:37:04.680Z,5.78
2023-02-22T14:39:38.532Z,8.10
2023-02-22T14:42:12.836Z,9.57
2023-02-22T14:45:10.347Z,6.63
2023-02-22T14:48:11.889Z,6.28
2023-02-22T14:50:44.447Z,6.95
2023-02-22T14:53:21.299Z,6.32
2023-02-22T14:56:02.721Z,6.00
2023-02-22T14:59:11.652Z,10.45
2023-02-22T15:01:52.698Z,10.20
2023-02-22T15:04:34.155Z,9.63
2023-02-22T15:07:19.821Z,9.70
2023-02-22T15:09:50.719Z,9.57
2023-02-22T15:12:31.186Z,11.15
2023-02-22T15:15:31.287Z,7.88
2023-02-22T15:17:59.389Z,9.27
2023-02-22T15:20:28.589Z,8.02
2023-02-22T15:23:00.424Z,7.55
2023-02-22T15:25:31.623Z,7.15
2023-02-22T15:28:04.527Z,6.90
2023-02-22T15:30:34.495Z,8.82
2023-02-22T15:33:18.193Z,7.82
2023-02-22T15:35:53.831Z,6.22
2023-02-22T15:38:28.781Z,8.83
2023-02-22T15:41:06.091Z,8.15
2023-02-22T15:43:33.845Z,9.45
2023-02-22T15:46:02.273Z,8.95
2023-02-22T15:48:31.883Z,9.40
2023-02-22T15:51:14.057Z,9.40
2023-02-22T15:53:45.189Z,8.27
2023-02-22T15:56:17.690Z,10.98
2023-02-22T15:58:47.798Z,14.88
2023-02-22T16:01:20.530Z,21.42
2023-02-22T16:03:53.347Z,22.85
2023-02-22T16:06:40.297Z,25.98
2023-02-22T16:09:07.725Z,24.38
2023-02-22T16:11:43.620Z,20.08
2023-02-22T16:14:30.865Z,18.20
2023-02-22T16:17:31.437Z,20.02
2023-02-22T16:20:22.510Z,24.70
2023-02-22T16:22:51.948Z,24.98
2023-02-22T16:25:19.309Z,39.60
2023-02-22T16:27:49.897Z,89.72
2023-02-22T16:30:25.267Z,69.10
2023-02-22T16:32:57.257Z,53.60
2023-02-22T16:35:29.941Z,46.03
2023-02-22T16:38:01.354Z,55.38
2023-02-22T16:40:35.844Z,48.35
2023-02-22T16:43:09.481Z,39.60
2023-02-22T16:45:40.128Z,30.50
2023-02-22T16:48:30.317Z,32.40
2023-02-22T16:51:02.308Z,39.40
2023-02-22T16:53:37.551Z,39.92
2023-02-22T16:58:39.833Z,33.92
2023-02-22T17:01:07.348Z,29.33
2023-02-22T17:03:35.052Z,15.48
2023-02-22T17:06:02.392Z,15.60
2023-02-22T17:08:30.910Z,22.50
2023-02-22T17:11:00.926Z,21.05
2023-02-22T17:13:29.560Z,20.00
2023-02-22T17:15:58.135Z,18.15
2023-02-22T17:18:29.033Z,24.10
2023-02-22T17:20:56.982Z,89.63
2023-02-22T17:23:25.053Z,44.55
2023-02-22T17:26:03.622Z,32.03
2023-02-22T17:28:31.595Z,30.73
2023-02-22T17:31:02.201Z,29.75
2023-02-22T17:33:33.630Z,51.80
2023-02-22T17:36:02.741Z,44.65
2023-02-22T17:38:31.044Z,40.40
2023-02-22T17:41:00.110Z,29.27
2023-02-22T17:43:28.988Z,27.63
2023-02-22T17:45:57.083Z,26.23
2023-02-22T17:48:25.774Z,26.02
2023-02-22T17:50:53.748Z,34.88
2023-02-22T17:53:24.945Z,27.65
2023-02-22T17:55:53.182Z,45.08
2023-02-22T17:58:22.459Z,68.07
2023-02-22T18:00:55.539Z,81.95
2023-02-22T18:04:01.695Z,44.50
2023-02-22T18:07:05.044Z,53.03
2023-02-22T18:09:54.574Z,65.68
2023-02-22T18:13:11.160Z,46.08
2023-02-22T18:35:48.281Z,64.13
2023-02-22T18:38:23.573Z,79.80
2023-02-22T18:41:07.472Z,73.63
2023-02-22T18:43:36.073Z,76.55
2023-02-22T18:46:11.207Z,66.80
2023-02-22T18:48:39.190Z,72.18
2023-02-22T18:51:10.128Z,74.45
2023-02-22T18:53:40.404Z,63.33
2023-02-22T18:56:10.354Z,67.00
2023-02-22T18:58:39.062Z,67.95
2023-02-22T19:01:07.770Z,105.70
2023-02-22T19:03:38.411Z,238.38
2023-02-22T19:06:08.910Z,255.77
2023-02-22T19:08:41.191Z,88.57
2023-02-22T19:11:18.089Z,75.03
2023-02-22T19:13:47.148Z,70.45
2023-02-22T19:16:17.254Z,80.13
2023-02-22T19:18:45.696Z,92.60
2023-02-22T19:21:14.826Z,119.43
2023-02-22T19:23:48.644Z,81.43
2023-02-22T19:26:19.930Z,43.72
2023-02-22T19:28:48.571Z,43.80
2023-02-22T19:31:23.027Z,49.88
2023-02-22T19:33:51.498Z,44.05
2023-02-22T19:36:20.753Z,43.20
2023-02-22T19:38:48.459Z,51.15
2023-02-22T19:41:20.714Z,49.40
2023-02-22T19:43:49.880Z,45.65
2023-02-22T19:46:18.325Z,48.40
2023-02-22T19:48:45.838Z,47.90
2023-02-22T19:51:15.384Z,48.75
2023-02-22T19:53:44.377Z,57.35
2023-02-22T19:56:17.347Z,68.95
2023-02-22T19:58:46.743Z,65.75
2023-02-22T20:01:23.463Z,67.15
2023-02-22T20:03:57.686Z,69.25
2023-02-22T20:06:35.149Z,70.88
2023-02-22T20:09:03.689Z,65.75
2023-02-22T20:11:31.914Z,71.00
2023-02-22T20:14:01.198Z,77.50
2023-02-22T20:16:30.362Z,78.30
2023-02-22T20:18:57.867Z,74.07
2023-02-22T20:21:31.597Z,73.68
2023-02-22T20:24:00.381Z,80.70
2023-02-22T20:26:30.600Z,99.47
2023-02-22T20:28:59.137Z,96.28
2023-02-22T20:31:29.560Z,92.00
2023-02-22T20:34:00.287Z,105.90
2023-02-22T20:36:30.386Z,112.63
2023-02-22T20:39:00.134Z,117.35
2023-02-22T20:41:33.548Z,120.22
2023-02-22T20:44:02.795Z,89.40
2023-02-22T20:46:31.838Z,99.13
2023-02-22T20:49:01.497Z,96.18
2023-02-22T20:51:29.748Z,117.32
2023-02-22T20:54:02.944Z,108.53
2023-02-22T20:56:32.709Z,114.25
2023-02-22T20:59:02.271Z,114.00
2023-02-22T21:01:30.504Z,118.03
2023-02-22T21:04:02.600Z,124.28
2023-02-22T21:06:31.192Z,112.22
2023-02-22T21:09:00.323Z,102.65
2023-02-22T21:11:30.789Z,89.50
2023-02-22T21:13:59.885Z,83.55
2023-02-22T21:16:31.388Z,91.45
2023-02-22T21:19:01.102Z,89.43
2023-02-22T21:21:29.741Z,74.38
2023-02-22T21:24:01.956Z,74.38
2023-02-22T21:26:32.561Z,86.57
2023-02-22T21:29:03.697Z,71.85
2023-02-22T21:31:33.390Z,92.03
2023-02-22T21:34:02.201Z,95.25
2023-02-22T21:36:32.158Z,99.40
2023-02-22T21:39:02.004Z,95.95
2023-02-22T21:41:31.427Z,95.45
2023-02-22T21:43:59.798Z,101.45
2023-02-22T21:46:29.541Z,103.93
2023-02-22T21:48:58.997Z,99.00
2023-02-22T21:51:33.505Z,90.40
2023-02-22T21:54:09.394Z,93.30
2023-02-22T21:56:40.084Z,87.82
2023-02-22T21:59:11.886Z,87.38
2023-02-22T22:01:50.125Z,74.40
2023-02-22T22:04:20.557Z,75.20
2023-02-22T22:06:53.444Z,77.95
2023-02-22T22:09:26.461Z,86.57
2023-02-22T22:11:58.557Z,101.65
2023-02-22T22:14:26.611Z,85.15
2023-02-22T22:17:00.370Z,78.90
2023-02-22T22:19:29.539Z,117.50
2023-02-22T22:21:57.913Z,111.38
2023-02-22T22:24:29.356Z,97.75
2023-02-22T22:27:03.871Z,103.15
2023-02-22T22:29:34.687Z,102.22
2023-02-22T22:32:04.019Z,123.93
2023-02-22T22:34:34.538Z,115.57
2023-02-22T22:37:04.196Z,105.05
2023-02-22T22:39:33.261Z,96.40
2023-02-22T22:42:00.850Z,89.78
2023-02-22T22:44:32.939Z,88.60
2023-02-22T22:47:01.470Z,87.50
2023-02-22T22:49:31.567Z,89.97
2023-02-22T22:51:59.841Z,100.32
2023-02-22T22:54:28.958Z,94.82
2023-02-22T22:56:56.556Z,95.90
2023-02-22T22:59:24.030Z,96.50
2023-02-22T23:01:52.454Z,99.32
2023-02-22T23:04:20.371Z,98.95
2023-02-22T23:06:50.750Z,94.38
2023-02-22T23:09:21.999Z,97.80
2023-02-22T23:11:54.346Z,93.88
2023-02-22T23:14:31.401Z,93.63
2023-02-22T23:17:03.740Z,95.00
2023-02-22T23:19:36.738Z,90.82
2023-02-22T23:22:07.089Z,91.70
2023-02-22T23:24:36.449Z,97.75
2023-02-22T23:27:11.054Z,101.20
2023-02-22T23:29:40.606Z,98.65
2023-02-22T23:32:09.097Z,92.72
2023-02-22T23:34:37.112Z,92.60
2023-02-22T23:37:09.968Z,91.45
2023-02-22T23:39:37.226Z,93.78
2023-02-22T23:42:05.495Z,93.13
2023-02-22T23:44:33.194Z,98.13
2023-02-22T23:47:02.663Z,102.47
2023-02-22T23:49:36.145Z,102.18
2023-02-22T23:52:08.735Z,100.85
2023-02-22T23:54:40.593Z,98.47
2023-02-22T23:57:09.035Z,99.85
2023-02-22T23:59:36.890Z,108.95
